sensor_id;sensor_type;location;lat;lon;timestamp;pressure;altitude;pressure_sealevel;temperature;humidity
71795;BME280;59641;45.188;5.712;2022-11-15T00:01:42;99204.00;;;15.47;62.22
71795;BME280;59641;45.188;5.712;2022-11-15T00:04:09;99207.78;;;15.46;62.59
71795;BME280;59641;45.188;5.712;2022-11-15T00:06:35;99201.56;;;15.46;62.51
71795;BME280;59641;45.188;5.712;2022-11-15T00:09:01;99192.34;;;15.42;62.51
71795;BME280;59641;45.188;5.712;2022-11-15T00:11:27;99193.97;;;15.43;62.58
71795;BME280;59641;45.188;5.712;2022-11-15T00:13:56;99187.41;;;15.39;62.72
71795;BME280;59641;45.188;5.712;2022-11-15T00:16:23;99187.69;;;15.37;63.08
71795;BME280;59641;45.188;5.712;2022-11-15T00:18:49;99195.25;;;15.35;62.85
71795;BME280;59641;45.188;5.712;2022-11-15T00:21:15;99184.09;;;15.31;63.03
71795;BME280;59641;45.188;5.712;2022-11-15T00:23:40;99192.22;;;15.31;63.01
71795;BME280;59641;45.188;5.712;2022-11-15T00:26:06;99187.31;;;15.28;62.88
71795;BME280;59641;45.188;5.712;2022-11-15T00:28:32;99182.44;;;15.25;62.93
71795;BME280;59641;45.188;5.712;2022-11-15T00:31:02;99184.00;;;15.21;63.36
71795;BME280;59641;45.188;5.712;2022-11-15T00:33:28;99179.13;;;15.18;62.95
71795;BME280;59641;45.188;5.712;2022-11-15T00:35:58;99182.31;;;15.15;62.39
71795;BME280;59641;45.188;5.712;2022-11-15T00:38:24;99174.72;;;15.12;63.36
71795;BME280;59641;45.188;5.712;2022-11-15T00:40:49;99177.13;;;15.08;62.99
71795;BME280;59641;45.188;5.712;2022-11-15T00:43:15;99176.28;;;15.08;63.39
71795;BME280;59641;45.188;5.712;2022-11-15T00:45:40;99172.22;;;15.05;63.03
71795;BME280;59641;45.188;5.712;2022-11-15T00:48:05;99168.13;;;15.03;63.60
71795;BME280;59641;45.188;5.712;2022-11-15T00:50:31;99163.75;;;14.97;63.63
71795;BME280;59641;45.188;5.712;2022-11-15T00:52:56;99170.50;;;14.94;63.81
71795;BME280;59641;45.188;5.712;2022-11-15T00:55:22;99176.94;;;14.93;64.08
71795;BME280;59641;45.188;5.712;2022-11-15T00:57:47;99176.38;;;14.91;63.65
71795;BME280;59641;45.188;5.712;2022-11-15T01:00:13;99177.47;;;14.90;65.05
71795;BME280;59641;45.188;5.712;2022-11-15T01:02:39;99178.25;;;14.90;64.69
71795;BME280;59641;45.188;5.712;2022-11-15T01:05:05;99174.75;;;14.90;64.66
71795;BME280;59641;45.188;5.712;2022-11-15T01:07:31;99173.13;;;14.89;64.36
71795;BME280;59641;45.188;5.712;2022-11-15T01:09:56;99170.69;;;14.87;65.00
71795;BME280;59641;45.188;5.712;2022-11-15T01:12:21;99178.78;;;14.87;64.83
71795;BME280;59641;45.188;5.712;2022-11-15T01:14:47;99170.34;;;14.84;64.53
71795;BME280;59641;45.188;5.712;2022-11-15T01:17:12;99177.66;;;14.83;65.55
71795;BME280;59641;45.188;5.712;2022-11-15T01:19:38;99176.03;;;14.82;64.98
71795;BME280;59641;45.188;5.712;2022-11-15T01:22:03;99174.88;;;14.78;64.73
71795;BME280;59641;45.188;5.712;2022-11-15T01:24:28;99171.03;;;14.74;65.27
71795;BME280;59641;45.188;5.712;2022-11-15T01:26:54;99164.78;;;14.68;65.08
71795;BME280;59641;45.188;5.712;2022-11-15T01:29:19;99160.69;;;14.66;65.34
71795;BME280;59641;45.188;5.712;2022-11-15T01:31:45;99162.81;;;14.64;66.04
71795;BME280;59641;45.188;5.712;2022-11-15T01:34:10;99164.16;;;14.61;65.32
71795;BME280;59641;45.188;5.712;2022-11-15T01:36:36;99163.56;;;14.59;65.96
71795;BME280;59641;45.188;5.712;2022-11-15T01:39:02;99164.38;;;14.60;65.64
71795;BME280;59641;45.188;5.712;2022-11-15T01:41:30;99163.56;;;14.59;65.97
71795;BME280;59641;45.188;5.712;2022-11-15T01:44:36;99159.25;;;14.58;66.01
71795;BME280;59641;45.188;5.712;2022-11-15T01:46:47;99156.00;;;14.56;66.59
71795;BME280;59641;45.188;5.712;2022-11-15T01:49:17;99157.06;;;14.55;66.21
71795;BME280;59641;45.188;5.712;2022-11-15T01:51:43;99154.59;;;14.54;65.79
71795;BME280;59641;45.188;5.712;2022-11-15T01:54:13;99147.53;;;14.53;65.94
71795;BME280;59641;45.188;5.712;2022-11-15T01:56:48;99142.41;;;14.51;66.46
71795;BME280;59641;45.188;5.712;2022-11-15T01:59:16;99142.41;;;14.51;66.37
71795;BME280;59641;45.188;5.712;2022-11-15T02:01:42;99136.09;;;14.45;66.53
71795;BME280;59641;45.188;5.712;2022-11-15T02:04:12;99134.25;;;14.46;66.64
71795;BME280;59641;45.188;5.712;2022-11-15T02:06:39;99134.72;;;14.43;66.50
71795;BME280;59641;45.188;5.712;2022-11-15T02:09:06;99128.78;;;14.41;66.64
71795;BME280;59641;45.188;5.712;2022-11-15T02:11:31;99136.53;;;14.37;67.98
71795;BME280;59641;45.188;5.712;2022-11-15T02:13:58;99138.44;;;14.37;67.22
71795;BME280;59641;45.188;5.712;2022-11-15T02:27:29;99114.13;;;14.37;67.30
71795;BME280;59641;45.188;5.712;2022-11-15T02:33:14;99116.59;;;14.38;66.30
71795;BME280;59641;45.188;5.712;2022-11-15T02:36:01;99108.81;;;14.42;66.93
71795;BME280;59641;45.188;5.712;2022-11-15T02:38:59;99108.56;;;14.43;66.74
71795;BME280;59641;45.188;5.712;2022-11-15T02:44:47;99092.59;;;14.42;66.27
71795;BME280;59641;45.188;5.712;2022-11-15T02:47:16;99094.50;;;14.41;66.84
71795;BME280;59641;45.188;5.712;2022-11-15T02:49:58;99091.78;;;14.41;66.68
71795;BME280;59641;45.188;5.712;2022-11-15T02:52:24;99085.31;;;14.42;66.84
71795;BME280;59641;45.188;5.712;2022-11-15T02:54:55;99088.00;;;14.42;67.06
71795;BME280;59641;45.188;5.712;2022-11-15T02:57:45;99095.06;;;14.43;67.35
71795;BME280;59641;45.188;5.712;2022-11-15T03:00:18;99083.44;;;14.43;66.85
71795;BME280;59641;45.188;5.712;2022-11-15T03:21:38;99084.97;;;14.34;67.10
71795;BME280;59641;45.188;5.712;2022-11-15T03:24:06;99085.78;;;14.34;67.18
71795;BME280;59641;45.188;5.712;2022-11-15T03:26:34;99087.66;;;14.34;67.00
71795;BME280;59641;45.188;5.712;2022-11-15T03:29:09;99100.06;;;14.35;67.02
71795;BME280;59641;45.188;5.712;2022-11-15T03:31:42;99082.50;;;14.32;67.25
71795;BME280;59641;45.188;5.712;2022-11-15T03:36:45;99076.03;;;14.33;67.42
71795;BME280;59641;45.188;5.712;2022-11-15T03:39:12;99066.31;;;14.32;67.25
71795;BME280;59641;45.188;5.712;2022-11-15T03:41:49;99080.38;;;14.34;67.44
71795;BME280;59641;45.188;5.712;2022-11-15T03:44:46;99068.19;;;14.32;67.77
71795;BME280;59641;45.188;5.712;2022-11-15T03:47:25;99042.78;;;14.27;67.55
71795;BME280;59641;45.188;5.712;2022-11-15T03:50:00;99041.97;;;14.27;67.65
71795;BME280;59641;45.188;5.712;2022-11-15T03:52:26;99047.03;;;14.23;68.40
71795;BME280;59641;45.188;5.712;2022-11-15T03:54:57;99055.97;;;14.24;67.81
71795;BME280;59641;45.188;5.712;2022-11-15T03:57:25;99046.56;;;14.26;68.44
71795;BME280;59641;45.188;5.712;2022-11-15T03:59:50;99044.91;;;14.25;68.43
71795;BME280;59641;45.188;5.712;2022-11-15T04:02:16;99041.41;;;14.25;68.38
71795;BME280;59641;45.188;5.712;2022-11-15T04:04:41;99036.28;;;14.28;68.28
71795;BME280;59641;45.188;5.712;2022-11-15T04:07:07;99036.84;;;14.31;67.96
71795;BME280;59641;45.188;5.712;2022-11-15T04:09:32;99031.22;;;14.32;67.93
71795;BME280;59641;45.188;5.712;2022-11-15T04:11:58;99025.31;;;14.35;67.47
71795;BME280;59641;45.188;5.712;2022-11-15T04:14:23;99028.81;;;14.36;67.95
71795;BME280;59641;45.188;5.712;2022-11-15T04:16:49;99028.28;;;14.34;68.26
71795;BME280;59641;45.188;5.712;2022-11-15T04:19:14;99019.63;;;14.32;68.06
71795;BME280;59641;45.188;5.712;2022-11-15T04:21:58;99005.56;;;14.30;68.40
71795;BME280;59641;45.188;5.712;2022-11-15T04:24:42;99005.56;;;14.30;68.83
71795;BME280;59641;45.188;5.712;2022-11-15T04:27:07;99010.16;;;14.29;68.32
71795;BME280;59641;45.188;5.712;2022-11-15T04:29:33;99007.69;;;14.27;67.89
71795;BME280;59641;45.188;5.712;2022-11-15T04:32:03;99001.47;;;14.27;68.21
71795;BME280;59641;45.188;5.712;2022-11-15T04:34:29;99006.88;;;14.27;68.04
71795;BME280;59641;45.188;5.712;2022-11-15T04:36:55;99004.41;;;14.25;68.32
71795;BME280;59641;45.188;5.712;2022-11-15T04:39:41;98998.72;;;14.22;68.18
71795;BME280;59641;45.188;5.712;2022-11-15T04:42:07;98997.88;;;14.21;68.64
71795;BME280;59641;45.188;5.712;2022-11-15T04:44:33;99002.75;;;14.19;68.64
71795;BME280;59641;45.188;5.712;2022-11-15T04:46:59;98996.72;;;14.12;69.55
71795;BME280;59641;45.188;5.712;2022-11-15T04:49:24;98995.66;;;14.13;68.89
71795;BME280;59641;45.188;5.712;2022-11-15T04:51:50;98987.50;;;14.08;69.09
71795;BME280;59641;45.188;5.712;2022-11-15T04:54:15;98976.94;;;14.06;68.89
71795;BME280;59641;45.188;5.712;2022-11-15T04:56:41;98969.13;;;14.05;68.97
71795;BME280;59641;45.188;5.712;2022-11-15T04:59:06;98977.22;;;14.05;68.82
71795;BME280;59641;45.188;5.712;2022-11-15T05:01:31;98973.69;;;14.04;68.79
71795;BME280;59641;45.188;5.712;2022-11-15T05:03:57;98965.06;;;14.02;68.48
71795;BME280;59641;45.188;5.712;2022-11-15T05:06:41;98967.25;;;14.05;68.96
71795;BME280;59641;45.188;5.712;2022-11-15T05:09:06;98953.50;;;14.07;68.56
71795;BME280;59641;45.188;5.712;2022-11-15T05:11:32;98950.28;;;14.10;69.03
71795;BME280;59641;45.188;5.712;2022-11-15T05:13:57;98947.31;;;14.12;69.25
71795;BME280;59641;45.188;5.712;2022-11-15T05:16:23;98940.88;;;14.13;68.82
71795;BME280;59641;45.188;5.712;2022-11-15T05:18:54;98950.34;;;14.15;68.52
71795;BME280;59641;45.188;5.712;2022-11-15T05:21:20;98937.66;;;14.16;68.72
71795;BME280;59641;45.188;5.712;2022-11-15T05:23:46;98937.66;;;14.16;69.18
71795;BME280;59641;45.188;5.712;2022-11-15T05:26:12;98931.47;;;14.15;68.88
71795;BME280;59641;45.188;5.712;2022-11-15T05:28:39;98936.63;;;14.17;68.94
71795;BME280;59641;45.188;5.712;2022-11-15T05:31:07;98928.50;;;14.17;68.77
71795;BME280;59641;45.188;5.712;2022-11-15T05:33:34;98916.06;;;14.16;68.48
71795;BME280;59641;45.188;5.712;2022-11-15T05:36:50;98922.81;;;14.13;69.25
71795;BME280;59641;45.188;5.712;2022-11-15T05:38:51;98926.88;;;14.16;68.25
71795;BME280;59641;45.188;5.712;2022-11-15T05:41:24;98920.34;;;14.12;68.73
71795;BME280;59641;45.188;5.712;2022-11-15T05:43:52;98920.63;;;14.10;68.63
71795;BME280;59641;45.188;5.712;2022-11-15T05:46:18;98903.88;;;14.08;69.06
71795;BME280;59641;45.188;5.712;2022-11-15T05:48:48;98910.88;;;14.09;68.52
71795;BME280;59641;45.188;5.712;2022-11-15T05:51:15;98912.75;;;14.09;68.82
71795;BME280;59641;45.188;5.712;2022-11-15T05:53:43;98910.88;;;14.09;68.92
71795;BME280;59641;45.188;5.712;2022-11-15T05:56:09;98911.44;;;14.11;68.94
71795;BME280;59641;45.188;5.712;2022-11-15T05:58:36;98906.84;;;14.12;69.12
71795;BME280;59641;45.188;5.712;2022-11-15T06:01:02;98914.66;;;14.08;69.14
71795;BME280;59641;45.188;5.712;2022-11-15T06:03:28;98920.84;;;14.09;68.68
71795;BME280;59641;45.188;5.712;2022-11-15T06:05:53;98913.56;;;14.09;68.93
71795;BME280;59641;45.188;5.712;2022-11-15T06:08:19;98912.75;;;14.09;68.52
71795;BME280;59641;45.188;5.712;2022-11-15T06:10:48;98920.56;;;14.05;69.75
71795;BME280;59641;45.188;5.712;2022-11-15T06:13:13;98925.41;;;14.03;69.00
71795;BME280;59641;45.188;5.712;2022-11-15T06:15:39;98917.50;;;13.96;69.15
71795;BME280;59641;45.188;5.712;2022-11-15T06:18:04;98914.78;;;13.96;69.28
71795;BME280;59641;45.188;5.712;2022-11-15T06:20:30;98921.75;;;13.92;70.17
71795;BME280;59641;45.188;5.712;2022-11-15T06:23:00;98920.06;;;13.86;69.54
71795;BME280;59641;45.188;5.712;2022-11-15T06:25:27;98925.47;;;13.86;69.63
71795;BME280;59641;45.188;5.712;2022-11-15T06:27:54;98911.19;;;13.85;69.91
71795;BME280;59641;45.188;5.712;2022-11-15T06:30:20;98916.31;;;13.87;68.96
71795;BME280;59641;45.188;5.712;2022-11-15T06:32:46;98921.47;;;13.89;69.21
71795;BME280;59641;45.188;5.712;2022-11-15T06:35:12;98929.03;;;13.92;69.41
71795;BME280;59641;45.188;5.712;2022-11-15T06:37:38;98922.31;;;13.94;69.70
71795;BME280;59641;45.188;5.712;2022-11-15T06:40:05;98917.72;;;13.95;69.13
71795;BME280;59641;45.188;5.712;2022-11-15T06:42:31;98919.91;;;13.93;70.21
71795;BME280;59641;45.188;5.712;2022-11-15T06:44:57;98919.91;;;13.93;69.95
71795;BME280;59641;45.188;5.712;2022-11-15T06:47:22;98921.50;;;13.94;69.66
71795;BME280;59641;45.188;5.712;2022-11-15T06:49:48;98914.22;;;13.94;69.44
71795;BME280;59641;45.188;5.712;2022-11-15T06:52:19;98912.09;;;13.96;69.50
71795;BME280;59641;45.188;5.712;2022-11-15T06:54:46;98911.00;;;13.97;69.40
71795;BME280;59641;45.188;5.712;2022-11-15T06:57:12;98918.88;;;13.99;69.56
71795;BME280;59641;45.188;5.712;2022-11-15T06:59:38;98929.09;;;13.97;69.71
71795;BME280;59641;45.188;5.712;2022-11-15T07:02:03;98924.03;;;14.00;69.58
71795;BME280;59641;45.188;5.712;2022-11-15T07:04:29;98916.75;;;14.01;69.67
71795;BME280;59641;45.188;5.712;2022-11-15T07:06:54;98920.25;;;14.01;69.77
71795;BME280;59641;45.188;5.712;2022-11-15T07:09:20;98914.84;;;14.01;70.05
71795;BME280;59641;45.188;5.712;2022-11-15T07:11:45;98908.13;;;14.04;69.52
71795;BME280;59641;45.188;5.712;2022-11-15T07:14:11;98912.97;;;14.02;69.38
71795;BME280;59641;45.188;5.712;2022-11-15T07:16:37;98908.41;;;14.02;69.77
71795;BME280;59641;45.188;5.712;2022-11-15T07:19:03;98908.41;;;14.02;70.08
71795;BME280;59641;45.188;5.712;2022-11-15T07:21:28;98910.81;;;14.04;70.13
71795;BME280;59641;45.188;5.712;2022-11-15T07:23:54;98913.53;;;14.04;70.36
71795;BME280;59641;45.188;5.712;2022-11-15T07:26:20;98910.81;;;14.04;69.42
71795;BME280;59641;45.188;5.712;2022-11-15T07:28:45;98903.00;;;14.02;69.38
71795;BME280;59641;45.188;5.712;2022-11-15T07:31:10;98904.88;;;14.02;70.74
71795;BME280;59641;45.188;5.712;2022-11-15T07:33:36;98907.56;;;14.02;70.04
71795;BME280;59641;45.188;5.712;2022-11-15T07:36:03;98911.91;;;14.03;69.96
71795;BME280;59641;45.188;5.712;2022-11-15T07:38:30;98920.28;;;14.06;69.80
71795;BME280;59641;45.188;5.712;2022-11-15T07:40:58;98917.91;;;14.10;69.39
71795;BME280;59641;45.188;5.712;2022-11-15T07:43:24;98918.72;;;14.11;69.37
71795;BME280;59641;45.188;5.712;2022-11-15T07:45:50;98909.81;;;14.10;69.59
71795;BME280;59641;45.188;5.712;2022-11-15T07:48:15;98906.84;;;14.12;69.87
71795;BME280;59641;45.188;5.712;2022-11-15T07:50:41;98903.91;;;14.13;69.44
71795;BME280;59641;45.188;5.712;2022-11-15T07:53:08;98902.59;;;14.16;69.83
71795;BME280;59641;45.188;5.712;2022-11-15T07:55:34;98898.00;;;14.16;69.67
71795;BME280;59641;45.188;5.712;2022-11-15T07:58:04;98901.03;;;14.20;69.40
71795;BME280;59641;45.188;5.712;2022-11-15T08:00:31;98901.31;;;14.23;68.93
71795;BME280;59641;45.188;5.712;2022-11-15T08:03:03;98908.91;;;14.26;69.15
71795;BME280;59641;45.188;5.712;2022-11-15T08:05:29;98907.03;;;14.27;68.76
71795;BME280;59641;45.188;5.712;2022-11-15T08:07:58;98901.09;;;14.30;68.53
71795;BME280;59641;45.188;5.712;2022-11-15T08:10:24;98897.34;;;14.31;68.99
71795;BME280;59641;45.188;5.712;2022-11-15T08:13:00;98895.97;;;14.28;69.04
71795;BME280;59641;45.188;5.712;2022-11-15T08:15:26;98896.78;;;14.29;68.99
71795;BME280;59641;45.188;5.712;2022-11-15T08:18:00;98896.28;;;14.32;68.82
71795;BME280;59641;45.188;5.712;2022-11-15T08:20:27;98894.94;;;14.35;69.16
71795;BME280;59641;45.188;5.712;2022-11-15T08:22:56;98899.03;;;14.37;69.06
71795;BME280;59641;45.188;5.712;2022-11-15T08:25:22;98888.53;;;14.41;68.77
71795;BME280;59641;45.188;5.712;2022-11-15T08:27:51;98891.28;;;14.46;68.80
71795;BME280;59641;45.188;5.712;2022-11-15T08:30:17;98884.78;;;14.47;69.06
71795;BME280;59641;45.188;5.712;2022-11-15T08:32:42;98885.34;;;14.49;68.88
71795;BME280;59641;45.188;5.712;2022-11-15T08:35:08;98885.13;;;14.51;68.97
71795;BME280;59641;45.188;5.712;2022-11-15T08:37:34;98880.25;;;14.53;68.78
71795;BME280;59641;45.188;5.712;2022-11-15T08:39:59;98873.56;;;14.55;68.84
71795;BME280;59641;45.188;5.712;2022-11-15T08:42:24;98871.16;;;14.59;68.73
71795;BME280;59641;45.188;5.712;2022-11-15T08:44:50;98875.22;;;14.61;68.82
71795;BME280;59641;45.188;5.712;2022-11-15T08:47:15;98880.94;;;14.65;68.82
71795;BME280;59641;45.188;5.712;2022-11-15T08:49:40;98879.09;;;14.70;68.76
71795;BME280;59641;45.188;5.712;2022-11-15T08:52:06;98867.97;;;14.67;68.53
71795;BME280;59641;45.188;5.712;2022-11-15T08:54:31;98861.78;;;14.72;68.53
71795;BME280;59641;45.188;5.712;2022-11-15T08:56:57;98859.66;;;14.74;68.31
71795;BME280;59641;45.188;5.712;2022-11-15T08:59:22;98862.09;;;14.75;67.95
71795;BME280;59641;45.188;5.712;2022-11-15T09:01:48;98848.88;;;14.79;68.45
71795;BME280;59641;45.188;5.712;2022-11-15T09:04:14;98854.28;;;14.79;68.64
71795;BME280;59641;45.188;5.712;2022-11-15T09:06:39;98850.78;;;14.78;68.67
71795;BME280;59641;45.188;5.712;2022-11-15T09:09:05;98841.34;;;14.81;68.99
71795;BME280;59641;45.188;5.712;2022-11-15T09:11:30;98843.50;;;14.84;69.00
71795;BME280;59641;45.188;5.712;2022-11-15T09:13:55;98849.22;;;14.87;68.70
71795;BME280;59641;45.188;5.712;2022-11-15T09:16:21;98846.78;;;14.91;68.49
71795;BME280;59641;45.188;5.712;2022-11-15T09:18:46;98837.63;;;14.92;68.28
71795;BME280;59641;45.188;5.712;2022-11-15T09:21:12;98832.50;;;14.96;68.28
71795;BME280;59641;45.188;5.712;2022-11-15T09:23:38;98830.38;;;14.98;68.37
71795;BME280;59641;45.188;5.712;2022-11-15T09:26:04;98841.19;;;15.03;68.59
71795;BME280;59641;45.188;5.712;2022-11-15T09:28:31;98835.00;;;15.07;68.37
71795;BME280;59641;45.188;5.712;2022-11-15T09:30:59;98832.63;;;15.11;68.09
71795;BME280;59641;45.188;5.712;2022-11-15T09:33:25;98834.78;;;15.14;67.68
71795;BME280;59641;45.188;5.712;2022-11-15T09:35:51;98827.75;;;15.13;67.65
71795;BME280;59641;45.188;5.712;2022-11-15T09:38:17;98817.75;;;15.13;67.89
71795;BME280;59641;45.188;5.712;2022-11-15T09:40:43;98812.91;;;15.16;68.20
71795;BME280;59641;45.188;5.712;2022-11-15T09:46:20;98811.03;;;15.21;67.85
71795;BME280;59641;45.188;5.712;2022-11-15T09:49:01;98814.84;;;15.25;67.70
71795;BME280;59641;45.188;5.712;2022-11-15T09:51:34;98801.03;;;15.27;67.83
71795;BME280;59641;45.188;5.712;2022-11-15T09:54:11;98800.78;;;15.28;67.71
71795;BME280;59641;45.188;5.712;2022-11-15T09:56:41;98798.66;;;15.30;67.61
71795;BME280;59641;45.188;5.712;2022-11-15T10:04:47;98787.03;;;15.35;67.50
71795;BME280;59641;45.188;5.712;2022-11-15T10:07:14;98804.63;;;15.38;67.25
71795;BME280;59641;45.188;5.712;2022-11-15T10:12:23;98790.56;;;15.41;67.44
71795;BME280;59641;45.188;5.712;2022-11-15T10:14:51;98772.44;;;15.41;67.04
71795;BME280;59641;45.188;5.712;2022-11-15T10:17:33;98777.34;;;15.44;67.46
71795;BME280;59641;45.188;5.712;2022-11-15T10:20:10;98766.78;;;15.48;67.57
71795;BME280;59641;45.188;5.712;2022-11-15T10:27:34;98754.94;;;15.59;67.50
71795;BME280;59641;45.188;5.712;2022-11-15T10:30:00;98749.78;;;15.63;68.07
71795;BME280;59641;45.188;5.712;2022-11-15T10:32:26;98748.72;;;15.69;67.19
71795;BME280;59641;45.188;5.712;2022-11-15T10:34:51;98744.97;;;15.70;67.55
71795;BME280;59641;45.188;5.712;2022-11-15T10:37:31;98748.47;;;15.70;67.76
71795;BME280;59641;45.188;5.712;2022-11-15T10:40:21;98734.13;;;15.70;67.08
71795;BME280;59641;45.188;5.712;2022-11-15T10:42:48;98724.13;;;15.70;67.00
71795;BME280;59641;45.188;5.712;2022-11-15T10:45:32;98720.34;;;15.71;66.85
71795;BME280;59641;45.188;5.712;2022-11-15T10:51:19;98714.69;;;15.78;66.44
71795;BME280;59641;45.188;5.712;2022-11-15T10:53:47;98713.03;;;15.82;66.10
71795;BME280;59641;45.188;5.712;2022-11-15T10:56:14;98721.16;;;15.87;66.39
71795;BME280;59641;45.188;5.712;2022-11-15T10:58:51;98725.78;;;15.87;65.91
71795;BME280;59641;45.188;5.712;2022-11-15T11:01:28;98706.84;;;15.87;65.77
71795;BME280;59641;45.188;5.712;2022-11-15T11:04:07;98702.50;;;15.86;65.83
71795;BME280;59641;45.188;5.712;2022-11-15T11:06:49;98702.22;;;15.87;65.67
71795;BME280;59641;45.188;5.712;2022-11-15T11:09:38;98690.34;;;15.88;65.37
71795;BME280;59641;45.188;5.712;2022-11-15T11:12:05;98674.38;;;15.87;65.82
71795;BME280;59641;45.188;5.712;2022-11-15T11:14:37;98675.19;;;15.82;65.79
71795;BME280;59641;45.188;5.712;2022-11-15T11:17:16;98670.59;;;15.83;65.84
71795;BME280;59641;45.188;5.712;2022-11-15T11:20:24;98659.78;;;15.83;65.67
71795;BME280;59641;45.188;5.712;2022-11-15T11:25:34;98666.00;;;15.83;65.93
71795;BME280;59641;45.188;5.712;2022-11-15T11:28:23;98664.63;;;15.86;65.78
71795;BME280;59641;45.188;5.712;2022-11-15T11:33:44;98638.13;;;15.88;66.15
71795;BME280;59641;45.188;5.712;2022-11-15T11:36:25;98643.25;;;15.89;66.03
71795;BME280;59641;45.188;5.712;2022-11-15T11:47:24;98614.84;;;15.97;66.03
71795;BME280;59641;45.188;5.712;2022-11-15T11:50:01;98598.63;;;15.97;66.21
71795;BME280;59641;45.188;5.712;2022-11-15T11:52:52;98581.03;;;16.00;65.91
71795;BME280;59641;45.188;5.712;2022-11-15T11:55:25;98585.06;;;16.02;65.93
71795;BME280;59641;45.188;5.712;2022-11-15T11:58:14;98587.50;;;16.04;65.65
71795;BME280;59641;45.188;5.712;2022-11-15T12:00:55;98579.13;;;16.00;64.62
71795;BME280;59641;45.188;5.712;2022-11-15T12:06:05;98571.53;;;16.07;65.54
71795;BME280;59641;45.188;5.712;2022-11-15T12:09:03;98568.81;;;16.07;65.54
71795;BME280;59641;45.188;5.712;2022-11-15T12:11:37;98569.09;;;16.06;65.58
71795;BME280;59641;45.188;5.712;2022-11-15T12:14:16;98551.78;;;16.07;65.48
71795;BME280;59641;45.188;5.712;2022-11-15T12:16:46;98544.72;;;16.06;65.27
71795;BME280;59641;45.188;5.712;2022-11-15T12:19:12;98543.13;;;16.05;65.73
71795;BME280;59641;45.188;5.712;2022-11-15T12:24:32;98532.00;;;16.06;65.74
71795;BME280;59641;45.188;5.712;2022-11-15T12:27:05;98542.28;;;16.04;66.37
71795;BME280;59641;45.188;5.712;2022-11-15T12:32:04;98535.53;;;16.12;65.94
71795;BME280;59641;45.188;5.712;2022-11-15T12:34:50;98529.56;;;16.15;66.09
71795;BME280;59641;45.188;5.712;2022-11-15T12:42:41;98513.56;;;16.24;65.72
71795;BME280;59641;45.188;5.712;2022-11-15T12:45:37;98530.31;;;16.26;66.16
71795;BME280;59641;45.188;5.712;2022-11-15T12:50:55;98504.31;;;16.30;66.04
71795;BME280;59641;45.188;5.712;2022-11-15T12:53:28;98510.81;;;16.29;66.16
71795;BME280;59641;45.188;5.712;2022-11-15T12:58:58;98516.75;;;16.36;66.05
71795;BME280;59641;45.188;5.712;2022-11-15T13:14:55;98473.38;;;16.46;66.66
71795;BME280;59641;45.188;5.712;2022-11-15T13:22:27;98456.25;;;16.56;66.58
71795;BME280;59641;45.188;5.712;2022-11-15T13:25:19;98445.63;;;16.59;66.25
71795;BME280;59641;45.188;5.712;2022-11-15T13:27:50;98436.16;;;16.62;67.11
71795;BME280;59641;45.188;5.712;2022-11-15T13:30:24;98434.22;;;16.68;66.36
71795;BME280;59641;45.188;5.712;2022-11-15T13:32:51;98429.34;;;16.70;66.62
71795;BME280;59641;45.188;5.712;2022-11-15T13:35:28;98426.06;;;16.73;66.18
71795;BME280;59641;45.188;5.712;2022-11-15T13:38:04;98416.03;;;16.73;65.83
71795;BME280;59641;45.188;5.712;2022-11-15T13:40:36;98420.91;;;16.76;65.95
71795;BME280;59641;45.188;5.712;2022-11-15T13:46:13;98408.94;;;16.77;66.07
71795;BME280;59641;45.188;5.712;2022-11-15T13:48:43;98408.41;;;16.80;66.34
71795;BME280;59641;45.188;5.712;2022-11-15T13:51:37;98402.41;;;16.83;66.65
71795;BME280;59641;45.188;5.712;2022-11-15T13:56:36;98391.31;;;16.85;66.35
71795;BME280;59641;45.188;5.712;2022-11-15T13:59:29;98386.41;;;16.87;66.12
71795;BME280;59641;45.188;5.712;2022-11-15T14:01:58;98382.91;;;16.87;66.41
71795;BME280;59641;45.188;5.712;2022-11-15T14:04:28;98381.78;;;16.88;66.43
71795;BME280;59641;45.188;5.712;2022-11-15T14:06:57;98378.28;;;16.87;66.40
71795;BME280;59641;45.188;5.712;2022-11-15T14:09:36;98372.88;;;16.87;66.39
71795;BME280;59641;45.188;5.712;2022-11-15T14:14:50;98363.09;;;16.91;66.25
71795;BME280;59641;45.188;5.712;2022-11-15T14:19:56;98361.19;;;16.92;66.22
71795;BME280;59641;45.188;5.712;2022-11-15T14:22:24;98364.69;;;16.92;65.93
71795;BME280;59641;45.188;5.712;2022-11-15T14:27:39;98351.88;;;16.98;65.38
71795;BME280;59641;45.188;5.712;2022-11-15T14:30:06;98350.28;;;16.97;65.92
71795;BME280;59641;45.188;5.712;2022-11-15T14:32:46;98349.47;;;16.96;65.79
71795;BME280;59641;45.188;5.712;2022-11-15T14:35:18;98343.25;;;16.96;65.89
71795;BME280;59641;45.188;5.712;2022-11-15T14:37:44;98344.59;;;16.98;65.42
71795;BME280;59641;45.188;5.712;2022-11-15T14:40:14;98342.94;;;16.97;65.66
71795;BME280;59641;45.188;5.712;2022-11-15T14:42:40;98341.09;;;16.93;65.76
71795;BME280;59641;45.188;5.712;2022-11-15T14:45:14;98340.06;;;16.89;65.63
71795;BME280;59641;45.188;5.712;2022-11-15T14:47:40;98340.41;;;16.82;65.78
71795;BME280;59641;45.188;5.712;2022-11-15T14:50:06;98342.31;;;16.81;65.53
71795;BME280;59641;45.188;5.712;2022-11-15T14:52:32;98344.19;;;16.81;65.65
71795;BME280;59641;45.188;5.712;2022-11-15T14:57:39;98332.03;;;16.73;66.31
71795;BME280;59641;45.188;5.712;2022-11-15T15:00:05;98330.72;;;16.71;65.77
71795;BME280;59641;45.188;5.712;2022-11-15T15:02:31;98337.25;;;16.70;65.91
71795;BME280;59641;45.188;5.712;2022-11-15T15:04:56;98330.19;;;16.69;65.99
71795;BME280;59641;45.188;5.712;2022-11-15T15:07:26;98333.81;;;16.59;67.00
71795;BME280;59641;45.188;5.712;2022-11-15T15:09:52;98331.34;;;16.63;66.50
71795;BME280;59641;45.188;5.712;2022-11-15T15:12:20;98332.41;;;16.61;66.60
71795;BME280;59641;45.188;5.712;2022-11-15T15:14:47;98329.75;;;16.56;67.06
71795;BME280;59641;45.188;5.712;2022-11-15T15:17:12;98326.25;;;16.56;66.13
71795;BME280;59641;45.188;5.712;2022-11-15T15:19:38;98328.69;;;16.57;66.82